sensor_id;sensor_type;location;lat;lon;timestamp;pressure;altitude;pressure_sealevel;temperature;humidity
15272;BME280;7737;51.578;7.268;2023-09-19T00:02:17;100235.66;;;16.78;100.00
15272;BME280;7737;51.578;7.268;2023-09-19T00:04:43;100239.22;;;16.68;100.00
15272;BME280;7737;51.578;7.268;2023-09-19T00:07:10;100248.84;;;16.70;100.00
15272;BME280;7737;51.578;7.268;2023-09-19T00:09:36;100246.06;;;16.61;100.00
15272;BME280;7737;51.578;7.268;2023-09-19T00:12:04;100242.00;;;16.66;100.00
15272;BME280;7737;51.578;7.268;2023-09-19T00:14:31;100243.38;;;16.61;100.00
15272;BME280;7737;51.578;7.268;2023-09-19T00:17:01;100256.06;;;16.59;100.00
15272;BME280;7737;51.578;7.268;2023-09-19T00:19:31;100246.03;;;16.50;100.00
15272;BME280;7737;51.578;7.268;2023-09-19T00:21:57;100251.81;;;16.56;100.00
15272;BME280;7737;51.578;7.268;2023-09-19T00:24:24;100250.69;;;16.59;100.00
15272;BME280;7737;51.578;7.268;2023-09-19T00:26:50;100252.41;;;16.49;100.00
15272;BME280;7737;51.578;7.268;2023-09-19T00:29:17;100258.63;;;16.49;100.00
15272;BME280;7737;51.578;7.268;2023-09-19T00:31:44;100256.81;;;16.38;100.00
15272;BME280;7737;51.578;7.268;2023-09-19T00:34:12;100261.69;;;16.33;100.00
15272;BME280;7737;51.578;7.268;2023-09-19T00:36:38;100256.91;;;16.37;100.00
15272;BME280;7737;51.578;7.268;2023-09-19T00:39:05;100266.56;;;16.28;100.00
15272;BME280;7737;51.578;7.268;2023-09-19T00:41:31;100264.25;;;16.35;100.00
15272;BME280;7737;51.578;7.268;2023-09-19T00:44:00;100265.09;;;16.24;100.00
15272;BME280;7737;51.578;7.268;2023-09-19T00:46:28;100267.53;;;16.27;100.00
15272;BME280;7737;51.578;7.268;2023-09-19T00:48:56;100267.94;;;16.23;100.00
15272;BME280;7737;51.578;7.268;2023-09-19T00:51:24;100276.94;;;16.22;100.00
15272;BME280;7737;51.578;7.268;2023-09-19T00:53:52;100262.44;;;16.13;100.00
15272;BME280;7737;51.578;7.268;2023-09-19T00:56:19;100278.28;;;16.16;100.00
15272;BME280;7737;51.578;7.268;2023-09-19T00:58:47;100273.16;;;16.13;100.00
15272;BME280;7737;51.578;7.268;2023-09-19T01:01:13;100277.19;;;16.19;100.00
15272;BME280;7737;51.578;7.268;2023-09-19T01:03:41;100283.16;;;16.11;100.00
15272;BME280;7737;51.578;7.268;2023-09-19T01:06:08;100283.78;;;16.15;100.00
15272;BME280;7737;51.578;7.268;2023-09-19T01:08:36;100288.75;;;16.08;100.00
15272;BME280;7737;51.578;7.268;2023-09-19T01:11:09;100297.53;;;16.10;100.00
15272;BME280;7737;51.578;7.268;2023-09-19T01:13:48;100292.66;;;16.04;100.00
15272;BME280;7737;51.578;7.268;2023-09-19T01:19:42;100299.59;;;15.96;100.00
15272;BME280;7737;51.578;7.268;2023-09-19T01:22:21;100290.84;;;15.94;100.00
15272;BME280;7737;51.578;7.268;2023-09-19T01:28:20;100297.03;;;15.94;100.00
15272;BME280;7737;51.578;7.268;2023-09-19T01:30:52;100308.59;;;15.95;100.00
15272;BME280;7737;51.578;7.268;2023-09-19T01:33:23;100300.94;;;15.90;100.00
15272;BME280;7737;51.578;7.268;2023-09-19T01:35:49;100309.69;;;15.92;100.00
15272;BME280;7737;51.578;7.268;2023-09-19T01:38:18;100316.75;;;15.82;100.00
15272;BME280;7737;51.578;7.268;2023-09-19T01:40:52;100313.38;;;15.91;100.00
15272;BME280;7737;51.578;7.268;2023-09-19T01:43:31;100319.94;;;15.87;100.00
15272;BME280;7737;51.578;7.268;2023-09-19T01:46:05;100322.59;;;15.87;100.00
15272;BME280;7737;51.578;7.268;2023-09-19T01:48:38;100327.47;;;15.82;100.00
15272;BME280;7737;51.578;7.268;2023-09-19T01:51:09;100320.78;;;15.88;100.00
15272;BME280;7737;51.578;7.268;2023-09-19T01:53:41;100318.47;;;15.83;100.00
15272;BME280;7737;51.578;7.268;2023-09-19T01:56:14;100317.72;;;15.81;100.00
15272;BME280;7737;51.578;7.268;2023-09-19T01:58:46;100317.72;;;15.70;100.00
15272;BME280;7737;51.578;7.268;2023-09-19T02:01:18;100313.56;;;15.66;100.00
15272;BME280;7737;51.578;7.268;2023-09-19T02:03:47;100323.91;;;15.70;100.00
15272;BME280;7737;51.578;7.268;2023-09-19T02:06:14;100330.50;;;15.66;100.00
15272;BME280;7737;51.578;7.268;2023-09-19T02:08:43;100328.53;;;15.68;100.00
15272;BME280;7737;51.578;7.268;2023-09-19T02:11:10;100330.59;;;15.65;100.00
15272;BME280;7737;51.578;7.268;2023-09-19T02:13:37;100324.50;;;15.63;100.00
15272;BME280;7737;51.578;7.268;2023-09-19T02:16:04;100331.09;;;15.59;100.00
15272;BME280;7737;51.578;7.268;2023-09-19T02:21:55;100341.03;;;15.57;100.00
15272;BME280;7737;51.578;7.268;2023-09-19T02:24:21;100344.25;;;15.62;100.00
15272;BME280;7737;51.578;7.268;2023-09-19T02:26:52;100346.88;;;15.51;100.00
15272;BME280;7737;51.578;7.268;2023-09-19T02:29:19;100345.78;;;15.53;100.00
15272;BME280;7737;51.578;7.268;2023-09-19T02:31:47;100350.13;;;15.43;100.00
15272;BME280;7737;51.578;7.268;2023-09-19T02:34:14;100345.28;;;15.48;100.00
15272;BME280;7737;51.578;7.268;2023-09-19T02:36:42;100351.75;;;15.46;100.00
15272;BME280;7737;51.578;7.268;2023-09-19T02:39:11;100356.03;;;15.36;100.00
15272;BME280;7737;51.578;7.268;2023-09-19T02:41:38;100350.84;;;15.45;100.00
15272;BME280;7737;51.578;7.268;2023-09-19T02:44:05;100358.03;;;15.45;100.00
15272;BME280;7737;51.578;7.268;2023-09-19T02:46:33;100348.94;;;15.47;100.00
15272;BME280;7737;51.578;7.268;2023-09-19T02:49:01;100353.19;;;15.50;100.00
15272;BME280;7737;51.578;7.268;2023-09-19T02:51:30;100362.13;;;15.38;100.00
15272;BME280;7737;51.578;7.268;2023-09-19T02:53:57;100355.28;;;15.34;100.00
15272;BME280;7737;51.578;7.268;2023-09-19T02:56:25;100358.41;;;15.27;100.00
15272;BME280;7737;51.578;7.268;2023-09-19T02:58:51;100363.44;;;15.32;100.00
15272;BME280;7737;51.578;7.268;2023-09-19T03:01:18;100362.97;;;15.38;100.00
15272;BME280;7737;51.578;7.268;2023-09-19T03:03:45;100362.59;;;15.32;100.00
15272;BME280;7737;51.578;7.268;2023-09-19T03:06:12;100366.22;;;15.31;100.00
15272;BME280;7737;51.578;7.268;2023-09-19T03:08:40;100363.69;;;15.29;100.00
15272;BME280;7737;51.578;7.268;2023-09-19T03:11:10;100366.44;;;15.27;100.00
15272;BME280;7737;51.578;7.268;2023-09-19T03:13:39;100374.25;;;15.31;100.00
15272;BME280;7737;51.578;7.268;2023-09-19T03:16:07;100371.47;;;15.32;100.00
15272;BME280;7737;51.578;7.268;2023-09-19T03:18:34;100376.72;;;15.34;100.00
15272;BME280;7737;51.578;7.268;2023-09-19T03:21:00;100361.28;;;15.37;100.00
15272;BME280;7737;51.578;7.268;2023-09-19T03:23:28;100363.78;;;15.27;100.00
15272;BME280;7737;51.578;7.268;2023-09-19T03:25:55;100371.34;;;15.34;100.00
15272;BME280;7737;51.578;7.268;2023-09-19T03:28:21;100370.50;;;15.33;100.00
15272;BME280;7737;51.578;7.268;2023-09-19T03:30:58;100370.97;;;15.27;100.00
15272;BME280;7737;51.578;7.268;2023-09-19T03:33:26;100376.56;;;15.24;100.00
15272;BME280;7737;51.578;7.268;2023-09-19T03:35:53;100379.09;;;15.25;100.00
15272;BME280;7737;51.578;7.268;2023-09-19T03:38:20;100375.47;;;15.27;100.00
15272;BME280;7737;51.578;7.268;2023-09-19T03:40:46;100373.69;;;15.14;100.00
15272;BME280;7737;51.578;7.268;2023-09-19T03:43:14;100378.09;;;15.15;100.00
15272;BME280;7737;51.578;7.268;2023-09-19T03:45:40;100376.34;;;15.14;100.00
15272;BME280;7737;51.578;7.268;2023-09-19T03:48:09;100382.47;;;15.16;100.00
15272;BME280;7737;51.578;7.268;2023-09-19T03:50:36;100377.94;;;15.17;100.00
15272;BME280;7737;51.578;7.268;2023-09-19T03:53:03;100380.03;;;15.13;100.00
15272;BME280;7737;51.578;7.268;2023-09-19T03:55:30;100376.72;;;15.10;100.00
15272;BME280;7737;51.578;7.268;2023-09-19T03:57:57;100377.44;;;15.12;100.00
15272;BME280;7737;51.578;7.268;2023-09-19T04:00:24;100381.91;;;15.00;100.00
15272;BME280;7737;51.578;7.268;2023-09-19T04:02:51;100384.09;;;15.06;100.00
15272;BME280;7737;51.578;7.268;2023-09-19T04:05:19;100375.34;;;15.04;100.00
15272;BME280;7737;51.578;7.268;2023-09-19T04:07:46;100373.44;;;14.94;100.00
15272;BME280;7737;51.578;7.268;2023-09-19T04:10:12;100374.53;;;14.91;100.00
15272;BME280;7737;51.578;7.268;2023-09-19T04:12:40;100370.97;;;14.91;100.00
15272;BME280;7737;51.578;7.268;2023-09-19T04:15:07;100378.56;;;14.97;100.00
15272;BME280;7737;51.578;7.268;2023-09-19T04:17:38;100376.47;;;14.89;100.00
15272;BME280;7737;51.578;7.268;2023-09-19T04:20:05;100372.56;;;14.93;100.00
15272;BME280;7737;51.578;7.268;2023-09-19T04:22:34;100376.47;;;14.89;100.00
15272;BME280;7737;51.578;7.268;2023-09-19T04:25:01;100379.88;;;14.91;100.00
15272;BME280;7737;51.578;7.268;2023-09-19T04:27:27;100371.44;;;14.85;100.00
15272;BME280;7737;51.578;7.268;2023-09-19T04:29:54;100380.94;;;14.89;100.00
15272;BME280;7737;51.578;7.268;2023-09-19T04:32:24;100375.81;;;14.86;100.00
15272;BME280;7737;51.578;7.268;2023-09-19T04:34:50;100380.22;;;14.87;100.00
15272;BME280;7737;51.578;7.268;2023-09-19T04:37:19;100381.81;;;14.89;100.00
15272;BME280;7737;51.578;7.268;2023-09-19T04:39:48;100386.09;;;14.92;100.00
15272;BME280;7737;51.578;7.268;2023-09-19T04:42:14;100381.81;;;14.89;100.00
15272;BME280;7737;51.578;7.268;2023-09-19T04:44:42;100384.50;;;14.89;100.00
15272;BME280;7737;51.578;7.268;2023-09-19T04:47:08;100389.09;;;14.87;100.00
15272;BME280;7737;51.578;7.268;2023-09-19T04:49:37;100395.31;;;14.88;100.00
15272;BME280;7737;51.578;7.268;2023-09-19T04:52:05;100387.16;;;14.89;100.00
15272;BME280;7737;51.578;7.268;2023-09-19T04:54:31;100385.34;;;14.90;100.00
15272;BME280;7737;51.578;7.268;2023-09-19T04:57:00;100392.75;;;14.86;100.00
15272;BME280;7737;51.578;7.268;2023-09-19T04:59:27;100391.25;;;14.82;100.00
15272;BME280;7737;51.578;7.268;2023-09-19T05:01:53;100412.69;;;14.82;100.00
15272;BME280;7737;51.578;7.268;2023-09-19T05:04:21;100411.91;;;14.80;100.00
15272;BME280;7737;51.578;7.268;2023-09-19T05:06:48;100410.75;;;14.84;100.00
15272;BME280;7737;51.578;7.268;2023-09-19T05:09:14;100421.00;;;14.90;100.00
15272;BME280;7737;51.578;7.268;2023-09-19T05:11:44;100425.72;;;14.87;100.00
15272;BME280;7737;51.578;7.268;2023-09-19T05:14:13;100435.03;;;14.81;100.00
15272;BME280;7737;51.578;7.268;2023-09-19T05:16:39;100434.69;;;14.86;100.00
15272;BME280;7737;51.578;7.268;2023-09-19T05:19:06;100446.06;;;14.89;100.00
15272;BME280;7737;51.578;7.268;2023-09-19T05:21:36;100446.25;;;14.86;100.00
15272;BME280;7737;51.578;7.268;2023-09-19T05:24:04;100445.31;;;14.87;100.00
15272;BME280;7737;51.578;7.268;2023-09-19T05:26:32;100453.56;;;14.84;100.00
15272;BME280;7737;51.578;7.268;2023-09-19T05:28:58;100463.75;;;14.79;100.00
15272;BME280;7737;51.578;7.268;2023-09-19T05:31:26;100465.22;;;14.83;100.00
15272;BME280;7737;51.578;7.268;2023-09-19T05:33:53;100464.47;;;14.81;100.00
15272;BME280;7737;51.578;7.268;2023-09-19T05:36:20;100467.03;;;14.83;100.00
15272;BME280;7737;51.578;7.268;2023-09-19T05:38:46;100474.84;;;14.86;100.00
15272;BME280;7737;51.578;7.268;2023-09-19T05:41:15;100471.44;;;14.84;100.00
15272;BME280;7737;51.578;7.268;2023-09-19T05:43:43;100474.09;;;14.84;100.00
15272;BME280;7737;51.578;7.268;2023-09-19T05:46:09;100486.31;;;14.88;100.00
15272;BME280;7737;51.578;7.268;2023-09-19T05:48:37;100493.16;;;14.92;100.00
15272;BME280;7737;51.578;7.268;2023-09-19T05:51:04;100490.34;;;14.93;100.00
15272;BME280;7737;51.578;7.268;2023-09-19T05:53:31;100480.22;;;14.98;100.00
15272;BME280;7737;51.578;7.268;2023-09-19T05:55:58;100488.00;;;15.01;100.00
15272;BME280;7737;51.578;7.268;2023-09-19T05:58:26;100490.44;;;15.04;100.00
15272;BME280;7737;51.578;7.268;2023-09-19T06:00:53;100490.03;;;15.10;100.00
15272;BME280;7737;51.578;7.268;2023-09-19T06:03:21;100488.81;;;15.14;100.00
15272;BME280;7737;51.578;7.268;2023-09-19T06:05:49;100493.56;;;15.11;100.00
15272;BME280;7737;51.578;7.268;2023-09-19T06:08:16;100489.06;;;15.11;100.00
15272;BME280;7737;51.578;7.268;2023-09-19T06:10:43;100492.28;;;15.16;100.00
15272;BME280;7737;51.578;7.268;2023-09-19T06:13:12;100481.34;;;15.19;100.00
15272;BME280;7737;51.578;7.268;2023-09-19T06:15:38;100480.34;;;15.20;100.00
15272;BME280;7737;51.578;7.268;2023-09-19T06:18:10;100471.25;;;15.23;100.00
15272;BME280;7737;51.578;7.268;2023-09-19T06:20:40;100462.63;;;15.31;100.00
15272;BME280;7737;51.578;7.268;2023-09-19T06:23:11;100462.44;;;15.34;100.00
15272;BME280;7737;51.578;7.268;2023-09-19T06:25:37;100468.78;;;15.33;100.00
15272;BME280;7737;51.578;7.268;2023-09-19T06:28:04;100465.09;;;15.34;100.00
15272;BME280;7737;51.578;7.268;2023-09-19T06:30:33;100471.19;;;15.36;100.00
15272;BME280;7737;51.578;7.268;2023-09-19T06:33:00;100469.28;;;15.38;100.00
15272;BME280;7737;51.578;7.268;2023-09-19T06:35:31;100484.88;;;15.44;100.00
15272;BME280;7737;51.578;7.268;2023-09-19T06:37:58;100477.66;;;15.46;100.00
15272;BME280;7737;51.578;7.268;2023-09-19T06:40:26;100481.16;;;15.46;100.00
15272;BME280;7737;51.578;7.268;2023-09-19T06:42:53;100472.06;;;15.49;100.00
15272;BME280;7737;51.578;7.268;2023-09-19T06:45:21;100473.66;;;15.51;100.00
15272;BME280;7737;51.578;7.268;2023-09-19T06:47:49;100480.50;;;15.55;100.00
15272;BME280;7737;51.578;7.268;2023-09-19T06:50:16;100483.81;;;15.59;100.00
15272;BME280;7737;51.578;7.268;2023-09-19T06:52:45;100482.81;;;15.60;100.00
15272;BME280;7737;51.578;7.268;2023-09-19T06:55:14;100483.59;;;15.62;100.00
15272;BME280;7737;51.578;7.268;2023-09-19T06:57:42;100477.75;;;15.68;100.00
15272;BME280;7737;51.578;7.268;2023-09-19T07:00:10;100482.59;;;15.63;100.00
15272;BME280;7737;51.578;7.268;2023-09-19T07:02:42;100488.38;;;15.69;100.00
15272;BME280;7737;51.578;7.268;2023-09-19T07:05:08;100495.34;;;15.72;100.00
15272;BME280;7737;51.578;7.268;2023-09-19T07:07:35;100488.25;;;15.71;100.00
15272;BME280;7737;51.578;7.268;2023-09-19T07:10:02;100493.16;;;15.77;100.00
15272;BME280;7737;51.578;7.268;2023-09-19T07:12:30;100486.56;;;15.70;100.00
15272;BME280;7737;51.578;7.268;2023-09-19T07:14:59;100488.88;;;15.74;100.00
15272;BME280;7737;51.578;7.268;2023-09-19T07:17:25;100488.03;;;15.74;100.00
15272;BME280;7737;51.578;7.268;2023-09-19T07:19:52;100499.19;;;15.92;100.00
15272;BME280;7737;51.578;7.268;2023-09-19T07:22:19;100510.50;;;15.84;100.00
15272;BME280;7737;51.578;7.268;2023-09-19T07:24:45;100504.03;;;15.87;100.00
15272;BME280;7737;51.578;7.268;2023-09-19T07:27:14;100514.81;;;15.98;100.00
15272;BME280;7737;51.578;7.268;2023-09-19T07:29:41;100509.88;;;16.04;100.00
15272;BME280;7737;51.578;7.268;2023-09-19T07:32:09;100500.31;;;16.00;100.00
15272;BME280;7737;51.578;7.268;2023-09-19T07:34:37;100512.06;;;16.10;100.00
15272;BME280;7737;51.578;7.268;2023-09-19T07:37:04;100506.56;;;16.01;100.00
15272;BME280;7737;51.578;7.268;2023-09-19T07:39:30;100510.16;;;16.12;100.00
15272;BME280;7737;51.578;7.268;2023-09-19T07:41:57;100503.50;;;16.05;100.00
15272;BME280;7737;51.578;7.268;2023-09-19T07:44:24;100495.53;;;16.16;100.00
15272;BME280;7737;51.578;7.268;2023-09-19T07:46:51;100496.03;;;16.21;100.00
15272;BME280;7737;51.578;7.268;2023-09-19T07:49:20;100490.28;;;16.26;100.00
15272;BME280;7737;51.578;7.268;2023-09-19T07:51:46;100507.72;;;16.20;100.00
15272;BME280;7737;51.578;7.268;2023-09-19T07:54:13;100501.03;;;16.26;100.00
15272;BME280;7737;51.578;7.268;2023-09-19T07:56:39;100500.69;;;16.30;100.00
15272;BME280;7737;51.578;7.268;2023-09-19T07:59:06;100507.03;;;16.29;100.00
15272;BME280;7737;51.578;7.268;2023-09-19T08:01:33;100512.78;;;16.36;100.00
15272;BME280;7737;51.578;7.268;2023-09-19T08:04:00;100517.88;;;16.39;100.00
15272;BME280;7737;51.578;7.268;2023-09-19T08:06:28;100513.38;;;16.39;100.00
15272;BME280;7737;51.578;7.268;2023-09-19T08:08:55;100523.66;;;16.45;100.00
15272;BME280;7737;51.578;7.268;2023-09-19T08:11:22;100522.34;;;16.51;100.00
15272;BME280;7737;51.578;7.268;2023-09-19T08:13:50;100514.19;;;16.53;100.00
15272;BME280;7737;51.578;7.268;2023-09-19T08:16:17;100527.00;;;16.60;100.00
15272;BME280;7737;51.578;7.268;2023-09-19T08:18:47;100520.19;;;16.56;100.00
15272;BME280;7737;51.578;7.268;2023-09-19T08:21:13;100536.03;;;16.59;100.00
15272;BME280;7737;51.578;7.268;2023-09-19T08:23:42;100537.91;;;16.70;100.00
15272;BME280;7737;51.578;7.268;2023-09-19T08:26:09;100537.41;;;16.65;100.00
15272;BME280;7737;51.578;7.268;2023-09-19T08:28:36;100535.22;;;16.70;100.00
15272;BME280;7737;51.578;7.268;2023-09-19T08:31:06;100546.69;;;16.72;100.00
15272;BME280;7737;51.578;7.268;2023-09-19T08:33:34;100543.97;;;16.61;100.00
15272;BME280;7737;51.578;7.268;2023-09-19T08:36:02;100542.53;;;16.68;100.00
15272;BME280;7737;51.578;7.268;2023-09-19T08:38:30;100545.34;;;16.77;100.00
15272;BME280;7737;51.578;7.268;2023-09-19T08:41:00;100538.88;;;16.80;100.00
15272;BME280;7737;51.578;7.268;2023-09-19T08:43:27;100544.72;;;16.74;100.00
15272;BME280;7737;51.578;7.268;2023-09-19T08:45:58;100546.25;;;16.89;100.00
15272;BME280;7737;51.578;7.268;2023-09-19T08:48:29;100534.03;;;16.96;100.00
15272;BME280;7737;51.578;7.268;2023-09-19T08:51:02;100546.72;;;16.94;100.00
15272;BME280;7737;51.578;7.268;2023-09-19T08:53:36;100537.94;;;17.03;100.00
15272;BME280;7737;51.578;7.268;2023-09-19T08:56:10;100542.81;;;17.09;100.00
15272;BME280;7737;51.578;7.268;2023-09-19T08:58:43;100536.97;;;17.15;100.00
15272;BME280;7737;51.578;7.268;2023-09-19T09:01:14;100531.31;;;17.29;100.00
15272;BME280;7737;51.578;7.268;2023-09-19T09:03:42;100528.41;;;17.21;100.00
15272;BME280;7737;51.578;7.268;2023-09-19T09:06:13;100547.94;;;17.45;100.00
15272;BME280;7737;51.578;7.268;2023-09-19T09:08:40;100542.22;;;17.39;100.00
15272;BME280;7737;51.578;7.268;2023-09-19T09:11:09;100536.22;;;17.24;100.00
15272;BME280;7737;51.578;7.268;2023-09-19T09:13:36;100531.09;;;17.32;100.00
15272;BME280;7737;51.578;7.268;2023-09-19T09:16:04;100527.91;;;17.49;100.00
15272;BME280;7737;51.578;7.268;2023-09-19T09:18:31;100518.38;;;17.56;100.00
15272;BME280;7737;51.578;7.268;2023-09-19T09:20:57;100528.66;;;17.62;100.00
15272;BME280;7737;51.578;7.268;2023-09-19T09:23:24;100516.91;;;17.52;100.00
15272;BME280;7737;51.578;7.268;2023-09-19T09:25:55;100507.38;;;17.71;100.00
15272;BME280;7737;51.578;7.268;2023-09-19T09:28:27;100495.59;;;17.72;100.00
15272;BME280;7737;51.578;7.268;2023-09-19T09:30:54;100498.56;;;17.69;100.00
15272;BME280;7737;51.578;7.268;2023-09-19T09:33:21;100501.84;;;17.72;100.00
15272;BME280;7737;51.578;7.268;2023-09-19T09:35:50;100490.91;;;17.85;100.00
15272;BME280;7737;51.578;7.268;2023-09-19T09:38:23;100499.84;;;17.85;100.00
15272;BME280;7737;51.578;7.268;2023-09-19T09:40:54;100491.94;;;17.84;100.00
15272;BME280;7737;51.578;7.268;2023-09-19T09:43:31;100483.44;;;17.99;100.00
15272;BME280;7737;51.578;7.268;2023-09-19T09:46:09;100488.00;;;18.08;100.00
15272;BME280;7737;51.578;7.268;2023-09-19T09:48:57;100475.34;;;17.99;100.00
15272;BME280;7737;51.578;7.268;2023-09-19T09:51:38;100478.00;;;18.10;100.00
15272;BME280;7737;51.578;7.268;2023-09-19T09:54:12;100480.16;;;18.16;100.00
15272;BME280;7737;51.578;7.268;2023-09-19T09:56:55;100483.91;;;18.25;100.00
15272;BME280;7737;51.578;7.268;2023-09-19T09:59:44;100469.03;;;18.21;100.00
15272;BME280;7737;51.578;7.268;2023-09-19T10:02:12;100470.38;;;18.15;100.00
15272;BME280;7737;51.578;7.268;2023-09-19T10:04:39;100463.53;;;18.32;100.00
15272;BME280;7737;51.578;7.268;2023-09-19T10:07:27;100463.53;;;18.32;100.00
15272;BME280;7737;51.578;7.268;2023-09-19T10:09:57;100441.94;;;18.64;100.00
15272;BME280;7737;51.578;7.268;2023-09-19T10:12:45;100441.84;;;18.65;100.00
15272;BME280;7737;51.578;7.268;2023-09-19T10:15:15;100437.16;;;18.67;100.00
15272;BME280;7737;51.578;7.268;2023-09-19T10:17:45;100431.59;;;18.90;100.00
15272;BME280;7737;51.578;7.268;2023-09-19T10:20:13;100438.41;;;18.94;100.00
15272;BME280;7737;51.578;7.268;2023-09-19T10:23:05;100442.56;;;19.07;100.00
15272;BME280;7737;51.578;7.268;2023-09-19T10:25:36;100439.13;;;18.96;100.00
15272;BME280;7737;51.578;7.268;2023-09-19T10:28:05;100428.41;;;18.75;100.00
15272;BME280;7737;51.578;7.268;2023-09-19T10:30:38;100421.25;;;18.64;100.00
15272;BME280;7737;51.578;7.268;2023-09-19T10:33:11;100417.97;;;18.91;100.00
15272;BME280;7737;51.578;7.268;2023-09-19T10:35:39;100426.59;;;18.85;100.00
15272;BME280;7737;51.578;7.268;2023-09-19T10:38:07;100423.28;;;19.12;100.00
15272;BME280;7737;51.578;7.268;2023-09-19T10:40:36;100412.75;;;19.39;100.00
15272;BME280;7737;51.578;7.268;2023-09-19T10:43:11;100413.72;;;18.89;100.00
15272;BME280;7737;51.578;7.268;2023-09-19T10:45:41;100407.75;;;19.34;100.00
15272;BME280;7737;51.578;7.268;2023-09-19T10:48:07;100400.75;;;19.03;100.00
15272;BME280;7737;51.578;7.268;2023-09-19T10:50:36;100403.56;;;19.02;100.00
15272;BME280;7737;51.578;7.268;2023-09-19T10:53:11;100391.69;;;19.23;100.00
15272;BME280;7737;51.578;7.268;2023-09-19T10:55:39;100392.72;;;19.32;100.00
15272;BME280;7737;51.578;7.268;2023-09-19T10:58:06;100368.78;;;19.58;100.00
15272;BME280;7737;51.578;7.268;2023-09-19T11:00:55;100378.00;;;19.74;100.00
15272;BME280;7737;51.578;7.268;2023-09-19T11:03:23;100350.34;;;19.72;100.00
15272;BME280;7737;51.578;7.268;2023-09-19T11:06:09;100350.41;;;19.99;100.00
15272;BME280;7737;51.578;7.268;2023-09-19T11:08:59;100356.84;;;19.60;100.00
15272;BME280;7737;51.578;7.268;2023-09-19T11:11:58;100361.38;;;19.88;100.00
15272;BME280;7737;51.578;7.268;2023-09-19T11:14:39;100358.69;;;19.79;100.00
15272;BME280;7737;51.578;7.268;2023-09-19T11:17:35;100353.66;;;20.22;100.00
15272;BME280;7737;51.578;7.268;2023-09-19T11:20:22;100356.97;;;20.07;100.00
15272;BME280;7737;51.578;7.268;2023-09-19T11:23:19;100340.97;;;19.67;100.00
15272;BME280;7737;51.578;7.268;2023-09-19T11:25:51;100332.34;;;20.29;100.00
15272;BME280;7737;51.578;7.268;2023-09-19T11:28:32;100322.31;;;20.48;100.00
15272;BME280;7737;51.578;7.268;2023-09-19T11:31:42;100322.00;;;20.15;100.00
15272;BME280;7737;51.578;7.268;2023-09-19T11:34:44;100309.94;;;20.09;100.00
15272;BME280;7737;51.578;7.268;2023-09-19T11:40:44;100318.16;;;20.08;100.00
15272;BME280;7737;51.578;7.268;2023-09-19T11:43:30;100343.16;;;20.19;100.00
15272;BME280;7737;51.578;7.268;2023-09-19T11:46:06;100333.03;;;20.68;100.00
15272;BME280;7737;51.578;7.268;2023-09-19T11:48:34;100339.91;;;20.62;100.00
15272;BME280;7737;51.578;7.268;2023-09-19T11:51:11;100299.47;;;20.70;100.00
15272;BME280;7737;51.578;7.268;2023-09-19T11:53:45;100316.78;;;20.77;100.00
15272;BME280;7737;51.578;7.268;2023-09-19T11:56:14;100313.56;;;20.37;100.00
15272;BME280;7737;51.578;7.268;2023-09-19T11:58:43;100315.00;;;20.22;100.00
15272;BME280;7737;51.578;7.268;2023-09-19T12:01:12;100313.44;;;20.29;100.00
15272;BME280;7737;51.578;7.268;2023-09-19T12:03:46;100314.00;;;20.23;100.00
15272;BME280;7737;51.578;7.268;2023-09-19T12:06:15;100352.16;;;20.47;100.00
15272;BME280;7737;51.578;7.268;2023-09-19T12:08:42;100333.78;;;20.60;100.00
15272;BME280;7737;51.578;7.268;2023-09-19T12:11:15;100321.69;;;20.64;100.00
15272;BME280;7737;51.578;7.268;2023-09-19T12:13:43;100300.31;;;20.71;100.00
15272;BME280;7737;51.578;7.268;2023-09-19T12:16:14;100307.00;;;20.39;100.00
15272;BME280;7737;51.578;7.268;2023-09-19T12:18:44;100300.97;;;20.55;100.00
15272;BME280;7737;51.578;7.268;2023-09-19T12:21:25;100304.63;;;20.63;100.00
15272;BME280;7737;51.578;7.268;2023-09-19T12:23:58;100297.66;;;20.61;100.00
15272;BME280;7737;51.578;7.268;2023-09-19T12:26:26;100270.41;;;20.99;100.00
15272;BME280;7737;51.578;7.268;2023-09-19T12:28:54;100264.06;;;20.91;100.00
15272;BME280;7737;51.578;7.268;2023-09-19T12:31:21;100269.38;;;20.65;100.00
15272;BME280;7737;51.578;7.268;2023-09-19T12:33:54;100259.72;;;21.07;100.00
15272;BME280;7737;51.578;7.268;2023-09-19T12:36:21;100262.63;;;20.96;100.00
15272;BME280;7737;51.578;7.268;2023-09-19T12:38:54;100258.94;;;21.33;100.00
15272;BME280;7737;51.578;7.268;2023-09-19T12:41:21;100239.47;;;21.11;98.60
15272;BME280;7737;51.578;7.268;2023-09-19T12:43:48;100231.69;;;20.81;97.92
15272;BME280;7737;51.578;7.268;2023-09-19T12:46:19;100246.97;;;21.17;98.82
15272;BME280;7737;51.578;7.268;2023-09-19T12:49:16;100229.25;;;21.05;97.15
15272;BME280;7737;51.578;7.268;2023-09-19T12:51:44;100229.72;;;21.01;97.29
15272;BME280;7737;51.578;7.268;2023-09-19T12:54:10;100236.88;;;20.75;97.51
15272;BME280;7737;51.578;7.268;2023-09-19T12:56:41;100241.94;;;21.22;97.63
15272;BME280;7737;51.578;7.268;2023-09-19T12:59:11;100238.47;;;21.30;98.27
15272;BME280;7737;51.578;7.268;2023-09-19T13:01:39;100236.22;;;21.26;97.39
15272;BME280;7737;51.578;7.268;2023-09-19T13:04:17;100240.41;;;21.63;97.25
15272;BME280;7737;51.578;7.268;2023-09-19T13:06:52;100232.75;;;21.84;97.01
15272;BME280;7737;51.578;7.268;2023-09-19T13:09:21;100207.41;;;21.60;94.56
15272;BME280;7737;51.578;7.268;2023-09-19T13:11:50;100205.88;;;21.57;94.36
15272;BME280;7737;51.578;7.268;2023-09-19T13:14:20;100210.44;;;21.57;94.54
15272;BME280;7737;51.578;7.268;2023-09-19T13:16:58;100214.94;;;21.74;94.67
15272;BME280;7737;51.578;7.268;2023-09-19T13:19:40;100225.66;;;21.83;94.25